createdAt,value
2019-01-27T00:01:18.951Z,-4.40
2019-01-27T00:03:48.163Z,-4.46
2019-01-27T00:06:17.574Z,-4.54
2019-01-27T00:08:47.967Z,-4.61
2019-01-27T00:11:17.172Z,-4.65
2019-01-27T00:13:46.384Z,-4.73
2019-01-27T00:16:16.695Z,-4.79
2019-01-27T00:18:45.880Z,-4.85
2019-01-27T00:21:15.100Z,-4.91
2019-01-27T00:23:44.336Z,-4.97
2019-01-27T00:26:13.575Z,-5.01
2019-01-27T00:28:42.993Z,-5.06
2019-01-27T00:31:12.276Z,-5.12
2019-01-27T00:33:41.558Z,-5.16
2019-01-27T00:36:10.866Z,-5.22
2019-01-27T00:38:40.379Z,-5.23
2019-01-27T00:41:10.055Z,-5.26
2019-01-27T00:43:39.246Z,-5.29
2019-01-27T00:46:08.896Z,-5.30
2019-01-27T00:48:38.117Z,-5.30
2019-01-27T00:51:07.451Z,-5.29
2019-01-27T00:53:36.713Z,-5.28
2019-01-27T00:56:06.728Z,-5.26
2019-01-27T00:58:36.178Z,-5.24
2019-01-27T01:01:05.973Z,-5.23
2019-01-27T01:03:35.194Z,-5.22
2019-01-27T01:06:05.193Z,-5.23
2019-01-27T01:08:34.520Z,-5.22
2019-01-27T01:11:03.708Z,-5.27
2019-01-27T01:13:33.002Z,-5.30
2019-01-27T01:16:02.246Z,-5.32
2019-01-27T01:18:31.451Z,-5.35
2019-01-27T01:21:00.667Z,-5.37
2019-01-27T01:23:29.914Z,-5.39
2019-01-27T01:25:59.140Z,-5.41
2019-01-27T01:28:28.334Z,-5.45
2019-01-27T01:30:57.384Z,-5.49
2019-01-27T01:33:26.606Z,-5.54
2019-01-27T01:35:55.803Z,-5.62
2019-01-27T01:38:25.105Z,-5.73
2019-01-27T01:40:54.502Z,-5.78
2019-01-27T01:43:23.696Z,-5.83
2019-01-27T01:45:52.940Z,-5.87
2019-01-27T01:48:22.139Z,-5.90
2019-01-27T01:50:51.328Z,-5.96
2019-01-27T01:53:20.567Z,-6.00
2019-01-27T01:55:49.801Z,-6.04
2019-01-27T01:58:19.080Z,-6.10
2019-01-27T02:00:48.292Z,-7.81
2019-01-27T02:03:17.502Z,-6.23
2019-01-27T02:05:46.758Z,-6.26
2019-01-27T02:08:15.981Z,-6.31
2019-01-27T02:10:45.375Z,-6.31
2019-01-27T02:13:14.562Z,-6.32
2019-01-27T02:16:06.660Z,-6.35
2019-01-27T02:18:37.272Z,-6.37
2019-01-27T02:21:07.261Z,-6.41
2019-01-27T02:23:36.531Z,-6.43
2019-01-27T02:26:06.991Z,-6.45
2019-01-27T02:28:36.723Z,-6.49
2019-01-27T02:31:06.382Z,-6.52
2019-01-27T02:33:35.589Z,-6.56
2019-01-27T02:36:05.356Z,-6.59
2019-01-27T02:38:34.614Z,-6.64
2019-01-27T02:41:04.445Z,-6.68
2019-01-27T02:43:33.748Z,-6.73
2019-01-27T02:46:03.042Z,-6.76
2019-01-27T02:48:32.315Z,-6.80
2019-01-27T02:51:01.512Z,-6.85
2019-01-27T02:53:30.736Z,-6.88
2019-01-27T02:55:59.926Z,-6.94
2019-01-27T02:58:29.149Z,-7.02
2019-01-27T03:00:58.439Z,-7.08
2019-01-27T03:03:27.726Z,-7.10
2019-01-27T03:06:28.297Z,-7.12
2019-01-27T03:09:07.608Z,-7.16
2019-01-27T03:11:50.124Z,-7.20
2019-01-27T03:14:20.553Z,-7.23
2019-01-27T03:16:51.773Z,-7.28
2019-01-27T03:19:21.110Z,-7.32
2019-01-27T03:21:50.385Z,-7.37
2019-01-27T03:24:19.777Z,-7.40
2019-01-27T03:26:48.944Z,-7.42
2019-01-27T03:29:18.146Z,-7.45
2019-01-27T03:31:47.463Z,-7.49
2019-01-27T03:34:16.666Z,-7.50
2019-01-27T03:36:46.014Z,-7.55
2019-01-27T03:39:15.223Z,-7.59
2019-01-27T03:41:44.541Z,-7.67
2019-01-27T03:44:13.725Z,-7.69
2019-01-27T03:46:42.913Z,-7.72
2019-01-27T03:49:12.150Z,-7.73
2019-01-27T03:51:41.421Z,-7.73
2019-01-27T03:54:10.628Z,-7.76
2019-01-27T03:56:39.881Z,-7.79
2019-01-27T03:59:09.089Z,-7.83
2019-01-27T04:01:38.283Z,-7.88
2019-01-27T04:04:07.624Z,-7.93
2019-01-27T04:06:36.879Z,-7.97
2019-01-27T04:09:09.529Z,-8.00
2019-01-27T04:11:38.755Z,-8.04
2019-01-27T04:14:08.307Z,-8.06
2019-01-27T04:16:37.503Z,-8.06
2019-01-27T04:19:06.745Z,-8.09
2019-01-27T04:21:36.006Z,-8.10
2019-01-27T04:24:05.693Z,-8.12
2019-01-27T04:26:34.999Z,-8.13
2019-01-27T04:29:04.882Z,-8.16
2019-01-27T04:31:34.064Z,-8.21
2019-01-27T04:34:03.307Z,-8.23
2019-01-27T04:36:32.533Z,-8.26
2019-01-27T04:39:01.711Z,-8.31
2019-01-27T04:41:30.942Z,-8.32
2019-01-27T04:44:00.428Z,-8.31
2019-01-27T04:46:29.635Z,-8.31
2019-01-27T04:48:58.882Z,-8.35
2019-01-27T04:51:28.103Z,-8.38
2019-01-27T04:53:57.331Z,-8.38
2019-01-27T04:56:26.825Z,-8.39
2019-01-27T04:58:56.125Z,-9.85
2019-01-27T05:01:25.337Z,-8.48
2019-01-27T05:04:11.095Z,-8.49
2019-01-27T05:06:40.289Z,-8.47
2019-01-27T05:09:10.140Z,-8.47
2019-01-27T05:11:39.517Z,-8.48
2019-01-27T05:14:08.721Z,-8.50
2019-01-27T05:16:38.020Z,-8.51
2019-01-27T05:19:07.268Z,-8.50
2019-01-27T05:21:36.461Z,-8.48
2019-01-27T05:24:06.145Z,-8.47
2019-01-27T05:26:35.434Z,-8.47
2019-01-27T05:29:04.837Z,-8.51
2019-01-27T05:31:34.036Z,-8.52
2019-01-27T05:34:03.275Z,-8.54
2019-01-27T05:36:32.480Z,-8.52
2019-01-27T05:39:01.664Z,-8.53
2019-01-27T05:41:31.252Z,-8.55
2019-01-27T05:44:00.584Z,-8.57
2019-01-27T05:46:30.229Z,-8.61
2019-01-27T05:48:59.539Z,-8.63
2019-01-27T05:51:28.857Z,-8.64
2019-01-27T05:53:58.082Z,-8.64
2019-01-27T05:56:27.343Z,-8.66
2019-01-27T05:58:56.532Z,-8.67
2019-01-27T06:01:26.254Z,-8.65
2019-01-27T06:03:55.493Z,-8.64
2019-01-27T06:06:24.760Z,-8.65
2019-01-27T06:08:53.938Z,-8.70
2019-01-27T06:11:23.176Z,-8.75
2019-01-27T06:13:52.373Z,-8.79
2019-01-27T06:16:21.627Z,-8.80
2019-01-27T06:18:51.005Z,-8.82
2019-01-27T06:21:20.188Z,-8.86
2019-01-27T06:23:49.382Z,-8.90
2019-01-27T06:26:18.604Z,-8.93
2019-01-27T06:28:47.947Z,-8.94
2019-01-27T06:31:19.448Z,-8.99
2019-01-27T06:33:53.719Z,-9.01
2019-01-27T06:36:22.933Z,-8.98
2019-01-27T06:38:52.124Z,-9.00
2019-01-27T06:41:21.387Z,-8.99
2019-01-27T06:43:50.581Z,-9.00
2019-01-27T06:46:19.778Z,-9.02
2019-01-27T06:48:49.093Z,-9.03
2019-01-27T06:51:18.283Z,-9.04
2019-01-27T06:53:47.480Z,-9.05
2019-01-27T06:56:16.843Z,-9.03
2019-01-27T06:59:17.133Z,-9.02
2019-01-27T07:01:54.160Z,-9.02
2019-01-27T07:04:28.304Z,-9.01
2019-01-27T07:07:16.519Z,-9.05
2019-01-27T07:10:03.106Z,-9.02
2019-01-27T07:12:50.068Z,-9.02
2019-01-27T07:15:41.428Z,-9.03
2019-01-27T07:18:21.485Z,-9.02
2019-01-27T07:21:02.744Z,-9.05
2019-01-27T07:24:00.241Z,-9.07
2019-01-27T07:26:41.264Z,-9.07
2019-01-27T07:29:28.800Z,-9.02
2019-01-27T07:32:15.746Z,-8.99
2019-01-27T07:34:58.460Z,-8.97
2019-01-27T07:37:34.363Z,-8.94
2019-01-27T07:40:38.989Z,-8.91
2019-01-27T07:43:35.039Z,-8.86
2019-01-27T07:46:13.093Z,-8.83
2019-01-27T07:49:13.655Z,-8.80
2019-01-27T07:52:08.148Z,-8.77
2019-01-27T07:54:59.486Z,-8.73
2019-01-27T07:57:37.838Z,-8.64
2019-01-27T08:00:34.353Z,-8.53
2019-01-27T08:03:22.540Z,-8.44
2019-01-27T08:06:09.367Z,-8.36
2019-01-27T08:08:57.572Z,-8.29
2019-01-27T08:11:48.811Z,-8.22
2019-01-27T08:14:37.049Z,-8.14
2019-01-27T08:17:27.985Z,-8.04
2019-01-27T08:20:22.641Z,-8.01
2019-01-27T08:23:19.849Z,-7.92
2019-01-27T08:26:01.673Z,-7.86
2019-01-27T08:28:47.222Z,-7.79
2019-01-27T08:31:38.296Z,-7.73
2019-01-27T08:34:27.481Z,-7.68
2019-01-27T08:37:10.475Z,-7.60
2019-01-27T08:40:10.767Z,-7.52
2019-01-27T08:42:57.572Z,-7.41
2019-01-27T08:45:41.571Z,-7.30
2019-01-27T08:48:10.814Z,-7.20
2019-01-27T08:50:40.143Z,-7.09
2019-01-27T08:53:09.344Z,-6.99
2019-01-27T08:55:38.579Z,-6.87
2019-01-27T08:58:07.806Z,-6.70
2019-01-27T09:00:39.665Z,-6.53
2019-01-27T09:03:36.906Z,-6.36
2019-01-27T09:06:44.390Z,-6.23
2019-01-27T09:09:30.425Z,-6.14
2019-01-27T09:12:27.313Z,-6.08
2019-01-27T09:15:18.605Z,-6.04
2019-01-27T09:18:00.527Z,-5.95
2019-01-27T09:20:51.228Z,-5.87
2019-01-27T09:23:38.862Z,-5.83
2019-01-27T09:26:42.247Z,-5.77
2019-01-27T09:29:27.465Z,-5.68
2019-01-27T09:32:09.065Z,-5.57
2019-01-27T09:34:47.328Z,-5.48
2019-01-27T09:37:42.674Z,-5.40
2019-01-27T09:40:30.820Z,-5.32
2019-01-27T09:43:10.481Z,-5.26
2019-01-27T09:46:05.411Z,-5.20
2019-01-27T09:48:54.601Z,-5.16
2019-01-27T09:51:46.178Z,-5.11
2019-01-27T09:54:22.118Z,-5.05
2019-01-27T09:57:10.289Z,-4.98
2019-01-27T10:00:13.521Z,-4.93
2019-01-27T10:03:01.735Z,-4.86
2019-01-27T10:05:48.688Z,-4.80
2019-01-27T10:08:32.429Z,-4.79
2019-01-27T10:11:07.828Z,-4.77
2019-01-27T10:14:05.216Z,-4.69
2019-01-27T10:16:45.087Z,-4.64
2019-01-27T10:19:36.164Z,-4.62
2019-01-27T10:22:24.780Z,-4.54
2019-01-27T10:25:25.102Z,-4.45
2019-01-27T10:28:25.551Z,-4.33
2019-01-27T10:31:10.154Z,-4.22
2019-01-27T10:34:16.564Z,-4.25
2019-01-27T10:36:54.611Z,-4.28
2019-01-27T10:39:29.953Z,-4.28
2019-01-27T10:42:30.513Z,-4.37
2019-01-27T10:45:34.607Z,-4.42
2019-01-27T10:48:30.746Z,-4.47
2019-01-27T10:51:24.791Z,-4.47
2019-01-27T10:54:16.414Z,-4.46
2019-01-27T10:56:59.885Z,-4.42
2019-01-27T10:59:48.448Z,-4.45
2019-01-27T11:02:47.561Z,-4.46
2019-01-27T11:05:48.055Z,-4.46
2019-01-27T11:08:34.606Z,-4.50
2019-01-27T11:11:31.981Z,-4.53
2019-01-27T11:14:23.074Z,-4.52
2019-01-27T11:17:12.986Z,-4.45
2019-01-27T11:19:50.522Z,-4.44
2019-01-27T11:22:50.778Z,-4.45
2019-01-27T11:25:43.095Z,-4.43
2019-01-27T11:28:38.112Z,-4.45
2019-01-27T11:31:37.052Z,-4.45
2019-01-27T11:34:46.074Z,-4.43
2019-01-27T11:37:43.358Z,-4.38
2019-01-27T11:40:34.896Z,-4.36
2019-01-27T11:43:41.521Z,-4.38
2019-01-27T11:46:25.480Z,-4.40
2019-01-27T11:49:14.972Z,-4.40
2019-01-27T11:51:57.018Z,-4.36
2019-01-27T11:54:26.366Z,-4.38
2019-01-27T11:56:56.016Z,-4.33
2019-01-27T11:59:25.202Z,-4.28
2019-01-27T12:01:54.592Z,-4.27
2019-01-27T12:04:26.167Z,-4.25
2019-01-27T12:06:55.370Z,-4.22
2019-01-27T12:09:24.627Z,-4.15
2019-01-27T12:11:55.602Z,-4.13
2019-01-27T12:14:24.839Z,-4.13
2019-01-27T12:16:54.228Z,-4.10
2019-01-27T12:19:23.495Z,-4.10
2019-01-27T12:21:52.831Z,-4.14
2019-01-27T12:24:22.159Z,-4.17
2019-01-27T12:26:52.399Z,-4.13
2019-01-27T12:29:22.253Z,-4.09
2019-01-27T12:31:51.738Z,-4.05
2019-01-27T12:34:20.951Z,-4.01
2019-01-27T12:36:53.601Z,-4.00
2019-01-27T12:39:22.857Z,-3.99
2019-01-27T12:41:52.128Z,-3.96
2019-01-27T12:44:21.334Z,-3.90
2019-01-27T12:46:50.564Z,-3.86
2019-01-27T12:49:21.019Z,-3.83
2019-01-27T12:51:50.545Z,-3.83
2019-01-27T12:54:20.333Z,-3.83
2019-01-27T12:56:52.675Z,-3.82
2019-01-27T12:59:24.002Z,-3.81
2019-01-27T13:01:53.338Z,-3.83
2019-01-27T13:04:22.525Z,-3.82
2019-01-27T13:06:52.082Z,-3.80
2019-01-27T13:09:30.693Z,-3.78
2019-01-27T13:11:59.928Z,-3.77
2019-01-27T13:14:29.876Z,-3.76
2019-01-27T13:16:59.189Z,-3.76
2019-01-27T13:19:32.617Z,-3.74
2019-01-27T13:22:01.964Z,-3.71
2019-01-27T13:24:31.249Z,-3.70
2019-01-27T13:27:00.703Z,-3.69
2019-01-27T13:29:32.329Z,-3.71
2019-01-27T13:32:02.051Z,-3.68
2019-01-27T13:34:31.928Z,-3.70
2019-01-27T13:37:02.500Z,-3.70
2019-01-27T13:39:36.576Z,-3.68
2019-01-27T13:42:07.611Z,-3.68
2019-01-27T13:44:38.824Z,-3.66
2019-01-27T13:47:09.901Z,-3.67
2019-01-27T13:49:39.131Z,-3.65
2019-01-27T13:52:09.948Z,-3.63
2019-01-27T13:54:40.732Z,-3.64
2019-01-27T13:57:10.641Z,-3.67
2019-01-27T13:59:41.996Z,-3.68
2019-01-27T14:02:13.320Z,-3.71
2019-01-27T14:04:48.407Z,-3.72
2019-01-27T14:07:13.622Z,-3.75
2019-01-27T14:09:45.008Z,-3.78
2019-01-27T14:12:14.303Z,-3.83
2019-01-27T14:14:43.567Z,-3.86
2019-01-27T14:17:17.143Z,-3.88
2019-01-27T14:19:47.620Z,-3.90
2019-01-27T14:22:16.888Z,-3.93
2019-01-27T14:24:46.120Z,-3.98
2019-01-27T14:27:15.426Z,-4.01
2019-01-27T14:29:44.925Z,-4.03
2019-01-27T14:32:14.179Z,-4.05
2019-01-27T14:34:43.411Z,-4.07
2019-01-27T14:37:14.770Z,-4.11
2019-01-27T14:39:47.072Z,-4.13
2019-01-27T14:42:16.294Z,-4.13
2019-01-27T14:44:45.564Z,-4.15
2019-01-27T14:47:17.193Z,-4.16
2019-01-27T14:49:48.935Z,-4.16
2019-01-27T14:52:19.720Z,-4.14
2019-01-27T14:54:56.407Z,-4.11
2019-01-27T14:57:26.032Z,-4.08
2019-01-27T14:59:55.244Z,-4.05
2019-01-27T15:02:24.452Z,-4.02
2019-01-27T15:04:54.093Z,-3.98
2019-01-27T15:07:23.289Z,-3.96
2019-01-27T15:09:52.524Z,-3.94
2019-01-27T15:12:21.772Z,-3.90
2019-01-27T15:14:50.993Z,-3.87
2019-01-27T15:17:20.772Z,-3.86
2019-01-27T15:19:51.117Z,-3.84
2019-01-27T15:22:20.341Z,-3.85
2019-01-27T15:24:49.562Z,-3.83
2019-01-27T15:27:18.800Z,-3.83
2019-01-27T15:29:48.014Z,-3.80
2019-01-27T15:32:17.230Z,-3.78
2019-01-27T15:34:48.609Z,-3.75
2019-01-27T15:37:23.141Z,-3.73
2019-01-27T15:39:52.483Z,-3.71
2019-01-27T15:42:21.745Z,-3.68
2019-01-27T15:44:51.322Z,-3.67
2019-01-27T15:47:20.529Z,-3.63
2019-01-27T15:49:51.308Z,-4.50
2019-01-27T15:52:20.529Z,-3.61
2019-01-27T15:54:50.063Z,-3.60
2019-01-27T15:57:19.577Z,-3.57
2019-01-27T15:59:49.062Z,-3.54
2019-01-27T16:02:18.295Z,-3.52
2019-01-27T16:04:47.672Z,-3.52
2019-01-27T16:07:17.629Z,-3.51
2019-01-27T16:09:49.218Z,-3.49
2019-01-27T16:12:18.632Z,-3.48
2019-01-27T16:14:49.572Z,-3.45
2019-01-27T16:17:18.798Z,-3.42
2019-01-27T16:19:48.041Z,-3.40
2019-01-27T16:22:17.286Z,-3.40
2019-01-27T16:24:46.839Z,-3.37
2019-01-27T16:27:16.427Z,-3.34
2019-01-27T16:30:06.051Z,-3.30
2019-01-27T16:32:39.340Z,-3.29
2019-01-27T16:35:14.604Z,-3.26
2019-01-27T16:37:43.981Z,-3.24
2019-01-27T16:40:15.759Z,-3.20
2019-01-27T16:42:45.303Z,-3.17
2019-01-27T16:45:16.033Z,-3.41
2019-01-27T16:47:46.962Z,-3.10
2019-01-27T16:50:17.470Z,-3.08
2019-01-27T16:52:46.814Z,-3.06
2019-01-27T16:55:16.475Z,-3.03
2019-01-27T16:57:45.691Z,-2.98
2019-01-27T17:00:21.104Z,-3.71
2019-01-27T17:02:50.516Z,-2.94
2019-01-27T17:05:19.823Z,-2.92
2019-01-27T17:07:49.105Z,-2.95
2019-01-27T17:10:19.412Z,-2.86
2019-01-27T17:12:49.865Z,-2.84
2019-01-27T17:15:19.157Z,-2.83
2019-01-27T17:17:48.384Z,-2.79
2019-01-27T17:20:25.640Z,-2.74
2019-01-27T17:22:51.808Z,-2.71
2019-01-27T17:25:21.114Z,-2.69
2019-01-27T17:27:50.336Z,-2.65
2019-01-27T17:30:22.808Z,-2.62
2019-01-27T17:32:52.401Z,-2.59
2019-01-27T17:35:23.273Z,-2.55
2019-01-27T17:37:52.640Z,-2.51
2019-01-27T17:40:22.123Z,-2.51
2019-01-27T17:42:51.547Z,-2.47
2019-01-27T17:45:20.977Z,-2.44
2019-01-27T17:47:50.181Z,-2.41
2019-01-27T17:50:19.884Z,-2.37
2019-01-27T17:52:49.223Z,-2.36
2019-01-27T17:55:36.172Z,-2.35
2019-01-27T17:58:15.239Z,-2.33
2019-01-27T18:01:07.897Z,-2.33
2019-01-27T18:03:55.058Z,-2.33
2019-01-27T18:06:29.033Z,-2.33
2019-01-27T18:09:06.178Z,-2.34
2019-01-27T18:11:42.388Z,-2.34
2019-01-27T18:14:20.028Z,-2.32
2019-01-27T18:16:49.306Z,-2.30
2019-01-27T18:19:18.634Z,-2.27
2019-01-27T18:21:49.048Z,-2.25
2019-01-27T18:24:18.239Z,-2.24
2019-01-27T18:26:47.447Z,-2.22
2019-01-27T18:29:16.696Z,-2.20
2019-01-27T18:31:45.933Z,-2.18
2019-01-27T18:34:15.149Z,-2.17
2019-01-27T18:36:44.376Z,-2.14
2019-01-27T18:39:14.760Z,-2.14
2019-01-27T18:41:43.986Z,-2.12
2019-01-27T18:44:13.190Z,-2.11
2019-01-27T18:46:42.981Z,-2.12
2019-01-27T18:49:12.194Z,-2.10
2019-01-27T18:51:41.423Z,-2.09
2019-01-27T18:54:28.418Z,-2.08
2019-01-27T18:57:15.611Z,-2.07
2019-01-27T18:59:56.896Z,-2.03
2019-01-27T19:02:54.074Z,-1.96
2019-01-27T19:05:29.577Z,-1.94
2019-01-27T19:08:20.912Z,-1.89
2019-01-27T19:11:21.138Z,-1.86
2019-01-27T19:14:08.458Z,-1.84
2019-01-27T19:16:55.391Z,-1.82
2019-01-27T19:19:43.604Z,-1.80
2019-01-27T19:22:50.142Z,-1.79
2019-01-27T19:25:36.975Z,-1.78
2019-01-27T19:28:25.199Z,-1.77
2019-01-27T19:31:09.280Z,-1.76
2019-01-27T19:33:49.600Z,-1.75
2019-01-27T19:36:46.974Z,-1.75
2019-01-27T19:39:27.412Z,-1.77
2019-01-27T19:42:08.340Z,-1.76
2019-01-27T19:44:43.636Z,-1.78
2019-01-27T19:47:34.743Z,-1.76
2019-01-27T19:50:24.129Z,-1.76
2019-01-27T19:53:11.207Z,-1.76
2019-01-27T19:56:00.391Z,-1.75
2019-01-27T19:58:36.475Z,-1.76
2019-01-27T20:01:25.130Z,-1.76
2019-01-27T20:04:12.098Z,-1.75
2019-01-27T20:07:10.737Z,-1.76
2019-01-27T20:09:59.332Z,-1.78
2019-01-27T20:12:43.817Z,-1.76
2019-01-27T20:15:24.396Z,-1.76
2019-01-27T20:18:18.439Z,-1.79
2019-01-27T20:20:57.555Z,-1.80
2019-01-27T20:23:44.390Z,-1.81
2019-01-27T20:26:38.753Z,-1.83
2019-01-27T20:29:16.980Z,-1.84
2019-01-27T20:31:55.454Z,-1.84
2019-01-27T20:34:46.739Z,-1.86
2019-01-27T20:37:33.746Z,-1.87
2019-01-27T20:40:21.941Z,-1.89
2019-01-27T20:43:05.280Z,-1.89
2019-01-27T20:45:51.148Z,-1.89
2019-01-27T20:48:38.725Z,-1.91
2019-01-27T20:51:33.170Z,-1.91
2019-01-27T20:54:21.351Z,-1.91
2019-01-27T20:57:06.116Z,-1.91
2019-01-27T21:00:09.384Z,-1.90
2019-01-27T21:02:46.196Z,-1.90
2019-01-27T21:05:32.356Z,-1.88
2019-01-27T21:08:09.454Z,-1.88
2019-01-27T21:10:57.703Z,-1.87
2019-01-27T21:13:58.217Z,-1.86
2019-01-27T21:16:55.245Z,-1.87
2019-01-27T21:19:37.604Z,-1.88
2019-01-27T21:22:07.136Z,-1.87
2019-01-27T21:24:36.335Z,-1.90
2019-01-27T21:27:06.689Z,-1.93
2019-01-27T21:29:36.155Z,-1.94
2019-01-27T21:32:05.466Z,-1.93
2019-01-27T21:34:34.673Z,-1.95
2019-01-27T21:37:03.930Z,-1.99
2019-01-27T21:39:33.164Z,-2.00
2019-01-27T21:42:02.402Z,-2.02
2019-01-27T21:44:31.645Z,-2.03
2019-01-27T21:47:00.858Z,-2.04
2019-01-27T21:49:30.154Z,-2.04
2019-01-27T21:51:59.418Z,-2.07
2019-01-27T21:54:28.647Z,-2.10
2019-01-27T21:56:57.849Z,-2.11
2019-01-27T21:59:27.068Z,-2.13
2019-01-27T22:01:56.261Z,-2.15
2019-01-27T22:04:25.485Z,-2.16
2019-01-27T22:06:55.498Z,-2.17
2019-01-27T22:09:24.725Z,-2.19
2019-01-27T22:11:53.942Z,-2.17
2019-01-27T22:14:23.260Z,-2.18
2019-01-27T22:16:52.559Z,-3.05
2019-01-27T22:19:21.789Z,-2.19
2019-01-27T22:21:51.040Z,-2.19
2019-01-27T22:24:20.276Z,-2.21
2019-01-27T22:26:49.493Z,-2.23
2019-01-27T22:29:18.771Z,-2.21
2019-01-27T22:31:47.970Z,-2.20
2019-01-27T22:34:17.165Z,-2.21
2019-01-27T22:36:46.447Z,-2.19
2019-01-27T22:39:15.643Z,-2.18
2019-01-27T22:41:44.856Z,-2.17
2019-01-27T22:44:14.077Z,-2.15
2019-01-27T22:46:43.282Z,-2.14
2019-01-27T22:49:12.490Z,-2.13
2019-01-27T22:51:41.885Z,-2.13
2019-01-27T22:54:11.206Z,-2.12
2019-01-27T22:56:40.505Z,-2.10
2019-01-27T22:59:09.869Z,-2.10
2019-01-27T23:01:39.555Z,-2.10
2019-01-27T23:04:09.242Z,-2.10
2019-01-27T23:06:38.641Z,-2.09
2019-01-27T23:09:13.272Z,-2.08
2019-01-27T23:11:42.636Z,-2.06
2019-01-27T23:14:11.859Z,-2.05
2019-01-27T23:16:41.209Z,-2.05
2019-01-27T23:19:10.570Z,-2.03
2019-01-27T23:21:39.825Z,-2.05
2019-01-27T23:24:09.118Z,-2.04
2019-01-27T23:26:38.344Z,-2.03
2019-01-27T23:29:07.567Z,-2.02
2019-01-27T23:31:36.796Z,-2.00
2019-01-27T23:34:06.192Z,-2.01
2019-01-27T23:36:35.414Z,-2.02
2019-01-27T23:39:08.321Z,-2.01
2019-01-27T23:41:37.577Z,-1.98
2019-01-27T23:44:06.808Z,-1.99
2019-01-27T23:46:36.018Z,-1.97
2019-01-27T23:49:05.522Z,-1.97
2019-01-27T23:51:34.733Z,-1.97
2019-01-27T23:54:04.074Z,-1.94
2019-01-27T23:56:33.324Z,-1.94
2019-01-27T23:59:02.547Z,-1.93
